createdAt,value
2018-05-23T00:02:42.083Z,101176.61
2018-05-23T00:07:43.426Z,101188.72
2018-05-23T00:12:44.745Z,101193.77
2018-05-23T00:17:46.055Z,101199.55
2018-05-23T00:22:47.367Z,101201.67
2018-05-23T00:27:48.672Z,101201.95
2018-05-23T00:32:49.980Z,101193.83
2018-05-23T00:37:51.289Z,101202.73
2018-05-23T00:42:52.621Z,101203.89
2018-05-23T00:47:54.688Z,101206.55
2018-05-23T00:52:56.001Z,101203.31
2018-05-23T00:57:58.142Z,101202.19
2018-05-23T01:02:59.470Z,101202.91
2018-05-23T01:08:00.789Z,101205.83
2018-05-23T01:13:02.861Z,101207.39
2018-05-23T01:18:04.202Z,101215.92
2018-05-23T01:23:05.517Z,101222.11
2018-05-23T01:28:06.827Z,101215.09
2018-05-23T01:33:08.135Z,101221.56
2018-05-23T01:38:09.430Z,101217.64
2018-05-23T01:43:10.753Z,101219.98
2018-05-23T01:48:12.057Z,101224.11
2018-05-23T01:53:13.362Z,101220.90
2018-05-23T01:58:14.682Z,101224.81
2018-05-23T02:03:16.013Z,101230.66
2018-05-23T02:08:17.342Z,101233.75
2018-05-23T02:13:18.672Z,101230.83
2018-05-23T02:18:20.010Z,101232.36
2018-05-23T02:23:21.309Z,101239.22
2018-05-23T02:28:22.622Z,101247.88
2018-05-23T02:33:23.976Z,101247.41
2018-05-23T02:38:25.298Z,101251.16
2018-05-23T02:43:26.594Z,101256.37
2018-05-23T02:48:27.919Z,101262.80
2018-05-23T02:53:29.222Z,101273.72
2018-05-23T02:58:30.532Z,101275.80
2018-05-23T03:03:31.851Z,101268.69
2018-05-23T03:08:33.914Z,101274.91
2018-05-23T03:13:35.235Z,101269.48
2018-05-23T03:18:36.550Z,101284.51
2018-05-23T03:23:38.606Z,101297.47
2018-05-23T03:28:39.940Z,101302.17
2018-05-23T03:33:41.982Z,101301.20
2018-05-23T03:38:43.286Z,101312.54
2018-05-23T03:43:44.585Z,101317.34
2018-05-23T03:48:45.886Z,101316.94
2018-05-23T03:53:47.206Z,101324.17
2018-05-23T03:58:49.311Z,101332.19
2018-05-23T04:04:10.339Z,101337.08
2018-05-23T04:09:11.711Z,101340.02
2018-05-23T04:14:13.831Z,101349.64
2018-05-23T04:19:15.139Z,101357.94
2018-05-23T04:24:16.447Z,101372.47
2018-05-23T04:29:18.471Z,101364.91
2018-05-23T04:34:19.775Z,101373.92
2018-05-23T04:39:21.159Z,101369.05
2018-05-23T04:44:22.477Z,101378.36
2018-05-23T04:49:23.805Z,101377.80
2018-05-23T04:54:25.853Z,101391.38
2018-05-23T04:59:27.166Z,101394.59
2018-05-23T05:04:28.781Z,101403.13
2018-05-23T05:09:30.102Z,101408.27
2018-05-23T05:14:31.438Z,101410.65
2018-05-23T05:19:32.766Z,101417.05
2018-05-23T05:24:34.819Z,101428.41
2018-05-23T05:29:36.129Z,101430.14
2018-05-23T05:34:37.477Z,101440.61
2018-05-23T05:39:38.768Z,101445.66
2018-05-23T05:44:40.146Z,101446.84
2018-05-23T05:49:41.470Z,101453.19
2018-05-23T05:54:42.775Z,101462.30
2018-05-23T05:59:44.082Z,101472.53
2018-05-23T06:04:45.690Z,101480.95
2018-05-23T06:09:47.944Z,101486.85
2018-05-23T06:14:49.207Z,101492.34
2018-05-23T06:19:50.581Z,101493.08
2018-05-23T06:24:52.642Z,101501.75
2018-05-23T06:29:53.966Z,101510.44
2018-05-23T06:34:56.010Z,101516.46
2018-05-23T06:39:57.350Z,101519.84
2018-05-23T06:44:58.655Z,101525.40
2018-05-23T06:50:00.751Z,101520.69
2018-05-23T06:55:02.078Z,101530.12
2018-05-23T07:00:03.399Z,101537.11
2018-05-23T07:05:04.714Z,101540.66
2018-05-23T07:10:06.062Z,101551.11
2018-05-23T07:15:07.378Z,101549.19
2018-05-23T07:20:08.690Z,101561.45
2018-05-23T07:25:10.002Z,101569.05
2018-05-23T07:30:18.391Z,101578.35
2018-05-23T07:35:19.710Z,101579.28
2018-05-23T07:40:21.070Z,101580.65
2018-05-23T07:45:22.415Z,101580.81
2018-05-23T07:50:23.854Z,101584.27
2018-05-23T07:55:25.105Z,101586.36
2018-05-23T08:00:26.426Z,101594.22
2018-05-23T08:05:27.714Z,101591.53
2018-05-23T08:10:29.010Z,101599.48
2018-05-23T08:15:30.383Z,101600.53
2018-05-23T08:20:31.690Z,101598.42
2018-05-23T08:25:32.997Z,101603.46
2018-05-23T08:30:34.313Z,101602.94
2018-05-23T08:35:35.694Z,101602.48
2018-05-23T08:40:36.998Z,101609.79
2018-05-23T08:45:39.065Z,101609.20
2018-05-23T08:50:40.407Z,101612.69
2018-05-23T08:55:41.730Z,101617.48
2018-05-23T09:00:43.084Z,101615.80
2018-05-23T09:05:44.422Z,101622.98
2018-05-23T09:10:45.746Z,101621.97
2018-05-23T09:15:47.811Z,101619.89
2018-05-23T09:20:49.174Z,101628.65
2018-05-23T09:25:50.536Z,101631.23
2018-05-23T09:30:51.877Z,101627.90
2018-05-23T09:35:53.178Z,101642.09
2018-05-23T09:40:54.535Z,101641.69
2018-05-23T09:45:55.850Z,101651.69
2018-05-23T09:50:57.202Z,101646.25
2018-05-23T09:55:58.523Z,101652.41
2018-05-23T10:00:59.918Z,101656.59
2018-05-23T10:06:01.262Z,101652.50
2018-05-23T10:11:02.593Z,101662.29
2018-05-23T10:16:03.942Z,101666.38
2018-05-23T10:21:05.278Z,101669.57
2018-05-23T10:26:06.604Z,101677.77
2018-05-23T10:31:08.685Z,101677.71
2018-05-23T10:36:10.167Z,101684.39
2018-05-23T10:41:11.508Z,101686.61
2018-05-23T10:46:13.799Z,101690.91
2018-05-23T10:51:15.106Z,101695.22
2018-05-23T10:56:17.174Z,101691.13
2018-05-23T11:01:18.495Z,101697.09
2018-05-23T11:06:20.610Z,101698.53
2018-05-23T11:11:21.961Z,101702.28
2018-05-23T11:16:23.304Z,101699.50
2018-05-23T11:21:24.617Z,101710.97
2018-05-23T11:26:32.935Z,101706.45
2018-05-23T11:31:34.270Z,101700.39
2018-05-23T11:36:35.590Z,101703.37
2018-05-23T11:41:37.018Z,101696.15
2018-05-23T11:46:38.387Z,101698.75
2018-05-23T11:51:39.684Z,101691.34
2018-05-23T11:56:41.744Z,101689.02
2018-05-23T12:01:43.156Z,101689.01
2018-05-23T12:06:44.447Z,101689.58
2018-05-23T12:11:45.765Z,101683.34
2018-05-23T12:16:47.057Z,101673.55
2018-05-23T12:21:48.430Z,101680.69
2018-05-23T12:26:50.510Z,101681.63
2018-05-23T12:31:51.855Z,101681.03
2018-05-23T12:36:53.245Z,101679.19
2018-05-23T12:41:54.575Z,101671.92
2018-05-23T12:46:56.013Z,101677.19
2018-05-23T12:51:57.695Z,101665.02
2018-05-23T12:56:59.049Z,101669.48
2018-05-23T13:02:00.353Z,101661.20
2018-05-23T13:07:01.723Z,101667.45
2018-05-23T13:12:03.053Z,101663.27
2018-05-23T13:17:04.365Z,101661.63
2018-05-23T13:22:05.673Z,101655.25
2018-05-23T13:27:07.027Z,101655.02
2018-05-23T13:32:08.444Z,101654.98
2018-05-23T13:37:09.764Z,101648.03
2018-05-23T13:42:11.099Z,101649.59
2018-05-23T13:47:12.426Z,101642.23
2018-05-23T13:52:13.766Z,101643.28
2018-05-23T13:57:15.854Z,101636.32
2018-05-23T14:02:17.170Z,101631.20
2018-05-23T14:07:18.506Z,101632.33
2018-05-23T14:12:19.831Z,101626.59
2018-05-23T14:17:21.941Z,101628.25
2018-05-23T14:22:24.006Z,101623.15
2018-05-23T14:27:25.339Z,101620.74
2018-05-23T14:32:27.381Z,101625.35
2018-05-23T14:37:28.716Z,101624.55
2018-05-23T14:42:30.054Z,101619.41
2018-05-23T14:47:31.403Z,101618.17
2018-05-23T14:52:32.694Z,101622.30
2018-05-23T14:57:34.745Z,101624.43
2018-05-23T15:02:36.138Z,101631.66
2018-05-23T15:07:37.654Z,101619.62
2018-05-23T15:12:39.076Z,101626.27
2018-05-23T15:17:41.126Z,101622.04
2018-05-23T15:22:42.475Z,101621.39
2018-05-23T15:27:44.554Z,101638.53
2018-05-23T15:32:45.918Z,101626.52
2018-05-23T15:37:47.229Z,101624.19
2018-05-23T15:42:48.543Z,101625.64
2018-05-23T15:47:49.858Z,101615.52
2018-05-23T15:52:51.203Z,101612.91
2018-05-23T15:57:52.522Z,101599.36
2018-05-23T16:02:54.569Z,101611.77
2018-05-23T16:07:55.909Z,101614.94
2018-05-23T16:12:57.307Z,101609.84
2018-05-23T16:17:59.357Z,101616.84
2018-05-23T16:23:00.679Z,101613.05
2018-05-23T16:28:02.037Z,101618.91
2018-05-23T16:33:03.378Z,101622.53
2018-05-23T16:38:04.711Z,101618.89
2018-05-23T16:43:06.051Z,101619.17
2018-05-23T16:48:07.367Z,101623.14
2018-05-23T16:53:08.695Z,101623.37
2018-05-23T16:58:10.045Z,101630.05
2018-05-23T17:03:12.105Z,101623.38
2018-05-23T17:08:13.417Z,101626.63
2018-05-23T17:13:14.729Z,101625.05
2018-05-23T17:18:16.044Z,101619.89
2018-05-23T17:23:17.371Z,101629.09
2018-05-23T17:28:18.703Z,101628.98
2018-05-23T17:33:20.134Z,101624.00
2018-05-23T17:38:22.122Z,101630.13
2018-05-23T17:43:23.421Z,101629.38
2018-05-23T17:48:24.754Z,101624.17
2018-05-23T17:53:26.831Z,101620.70
2018-05-23T17:58:28.181Z,101636.25
2018-05-23T18:03:29.506Z,101628.80
2018-05-23T18:08:30.858Z,101633.56
2018-05-23T18:13:32.228Z,101636.88
2018-05-23T18:18:33.549Z,101638.67
2018-05-23T18:23:34.904Z,101643.94
2018-05-23T18:28:36.321Z,101647.58
2018-05-23T18:33:37.574Z,101656.13
2018-05-23T18:38:38.975Z,101665.84
2018-05-23T18:43:41.055Z,101664.98
2018-05-23T18:48:42.393Z,101661.75
2018-05-23T18:53:43.800Z,101674.59
2018-05-23T18:58:45.111Z,101674.21
2018-05-23T19:03:46.445Z,101677.97
2018-05-23T19:08:48.502Z,101684.92
2018-05-23T19:13:49.828Z,101692.12
2018-05-23T19:18:51.127Z,101696.21
2018-05-23T19:23:53.186Z,101689.84
2018-05-23T19:28:54.525Z,101707.63
2018-05-23T19:33:56.581Z,101707.65
2018-05-23T19:38:57.910Z,101714.55
2018-05-23T19:43:59.240Z,101728.67
2018-05-23T19:49:00.576Z,101729.84
2018-05-23T19:54:01.919Z,101728.92
2018-05-23T19:59:03.271Z,101734.87
2018-05-23T20:04:04.617Z,101738.58
2018-05-23T20:09:05.967Z,101741.91
2018-05-23T20:14:07.437Z,101750.38
2018-05-23T20:19:08.634Z,101753.20
2018-05-23T20:24:10.679Z,101745.06
2018-05-23T20:29:12.031Z,101749.73
2018-05-23T20:34:13.342Z,101743.87
2018-05-23T20:39:15.353Z,101743.81
2018-05-23T20:44:16.798Z,101749.82
2018-05-23T20:49:19.004Z,101750.66
2018-05-23T20:54:20.379Z,101765.94
2018-05-23T20:59:21.684Z,101758.84
2018-05-23T21:04:23.072Z,101768.77
2018-05-23T21:09:24.407Z,101773.94
2018-05-23T21:14:25.751Z,101773.54
2018-05-23T21:19:27.091Z,101778.64
2018-05-23T21:24:28.432Z,101779.91
2018-05-23T21:29:29.801Z,101778.97
2018-05-23T21:34:31.129Z,101791.55
2018-05-23T21:39:33.170Z,101795.84
2018-05-23T21:44:34.478Z,101794.78
2018-05-23T21:49:35.809Z,101782.82
2018-05-23T21:54:37.862Z,101789.69
2018-05-23T21:59:39.178Z,101786.91
2018-05-23T22:04:40.480Z,101788.52
2018-05-23T22:09:41.792Z,101777.95
2018-05-23T22:14:43.130Z,101778.73
2018-05-23T22:19:44.455Z,101778.52
2018-05-23T22:24:45.782Z,101779.05
2018-05-23T22:29:47.096Z,101783.48
2018-05-23T22:34:48.446Z,101782.15
2018-05-23T22:39:49.771Z,101784.05
2018-05-23T22:44:51.077Z,101788.25
2018-05-23T22:49:52.446Z,101784.34
2018-05-23T22:54:53.778Z,101776.84
2018-05-23T22:59:55.113Z,101780.31
2018-05-23T23:04:56.429Z,101792.78
2018-05-23T23:09:57.748Z,101790.61
2018-05-23T23:14:59.079Z,101788.97
2018-05-23T23:20:00.422Z,101790.44
2018-05-23T23:25:01.749Z,101797.89
2018-05-23T23:30:03.091Z,101796.52
2018-05-23T23:35:04.426Z,101790.27
2018-05-23T23:40:05.754Z,101800.93
2018-05-23T23:45:07.068Z,101799.95
2018-05-23T23:50:08.398Z,101791.24
2018-05-23T23:55:09.729Z,101792.14
